Brewster, Kansas
Current Conditions -  °F | °C
As of 2:53 AM on Friday 28 Nov 2014 (Local Time) from KGLD Reporting Station
Clear Clear  
Wind Chill: 28°   Ceiling: Unl
Heat Index: 36°   Visibility: 10mi
Dew Point: 23°   Wind: 10mph
Humidity: 59%   Direction: 230°SW
Pressure: 30"   Gusts: NA
Location:  39.37°N, 101.38°W
Report Text: KGLD 280853Z AUTO 23009KT 10SM CLR 02/M05 A3000 RMK AO2 SLP149 T00221050 56010
Loading
Personal Weather Stations






























Interactive Weather Map New forecast layout! Learn more

10-Day Weather Forecast

Advertisements
Track Severe Weather on mobile